地図

経路データ

SID SEASON NUMBER BASIN SUBBASIN NAME ISO_TIME NATURE LAT LON WMO_WIND WMO_PRES WMO_AGENCY TRACK_TYPE DIST2LAND LANDFALL IFLAG USA_AGENCY USA_ATCF_ID USA_LAT USA_LON USA_RECORD USA_STATUS USA_WIND USA_PRES USA_SSHS USA_R34_NE USA_R34_SE USA_R34_SW USA_R34_NW USA_R50_NE USA_R50_SE USA_R50_SW USA_R50_NW USA_R64_NE USA_R64_SE USA_R64_SW USA_R64_NW USA_POCI USA_ROCI USA_RMW USA_EYE TOKYO_LAT TOKYO_LON TOKYO_GRADE TOKYO_WIND TOKYO_PRES TOKYO_R50_DIR TOKYO_R50_LONG TOKYO_R50_SHORT TOKYO_R30_DIR TOKYO_R30_LONG TOKYO_R30_SHORT TOKYO_LAND CMA_LAT CMA_LON CMA_CAT CMA_WIND CMA_PRES HKO_LAT HKO_LON HKO_CAT HKO_WIND HKO_PRES NEWDELHI_LAT NEWDELHI_LON NEWDELHI_GRADE NEWDELHI_WIND NEWDELHI_PRES NEWDELHI_CI NEWDELHI_DP NEWDELHI_POCI REUNION_LAT REUNION_LON REUNION_TYPE REUNION_WIND REUNION_PRES REUNION_TNUM REUNION_CI REUNION_RMW REUNION_R34_NE REUNION_R34_SE REUNION_R34_SW REUNION_R34_NW REUNION_R50_NE REUNION_R50_SE REUNION_R50_SW REUNION_R50_NW REUNION_R64_NE REUNION_R64_SE REUNION_R64_SW REUNION_R64_NW BOM_LAT BOM_LON BOM_TYPE BOM_WIND BOM_PRES BOM_TNUM BOM_CI BOM_RMW BOM_R34_NE BOM_R34_SE BOM_R34_SW BOM_R34_NW BOM_R50_NE BOM_R50_SE BOM_R50_SW BOM_R50_NW BOM_R64_NE BOM_R64_SE BOM_R64_SW BOM_R64_NW BOM_ROCI BOM_POCI BOM_EYE BOM_POS_METHOD BOM_PRES_METHOD NADI_LAT NADI_LON NADI_CAT NADI_WIND NADI_PRES WELLINGTON_LAT WELLINGTON_LON WELLINGTON_WIND WELLINGTON_PRES DS824_LAT DS824_LON DS824_STAGE DS824_WIND DS824_PRES TD9636_LAT TD9636_LON TD9636_STAGE TD9636_WIND TD9636_PRES TD9635_LAT TD9635_LON TD9635_WIND TD9635_PRES TD9635_ROCI NEUMANN_LAT NEUMANN_LON NEUMANN_CLASS NEUMANN_WIND NEUMANN_PRES MLC_LAT MLC_LON MLC_CLASS MLC_WIND MLC_PRES USA_GUST BOM_GUST BOM_GUST_PER REUNION_GUST REUNION_GUST_PER USA_SEAHGT USA_SEARAD_NE USA_SEARAD_SE USA_SEARAD_SW USA_SEARAD_NW STORM_SPEED STORM_DIR
1969227N13325 1969 58 NA NA DEBBIE 1969-08-14 12:00:00 TS 13.0000 -35.5000 25 hurdat_atl main 1843 1836 O_____________ hurdat_atl AL081969 13.0000 -35.5000 TD 25 -1 15 283
1969227N13325 1969 58 NA NA DEBBIE 1969-08-14 15:00:00 TS 13.1629 -36.2497 main 1847 1836 P_____________ AL081969 13.1629 -36.2497 TD 27 -1 15 282
1969227N13325 1969 58 NA NA DEBBIE 1969-08-14 18:00:00 TS 13.3000 -37.0000 30 hurdat_atl main 1841 1808 O_____________ hurdat_atl AL081969 13.3000 -37.0000 TD 30 -1 15 279
1969227N13325 1969 58 NA NA DEBBIE 1969-08-14 21:00:00 TS 13.3998 -37.7502 main 1799 1742 P_____________ AL081969 13.3998 -37.7502 TD 32 -1 15 278
1969227N13325 1969 58 NA NA DEBBIE 1969-08-15 00:00:00 TS 13.5000 -38.5000 35 hurdat_atl main 1742 1688 O_____________ hurdat_atl AL081969 13.5000 -38.5000 TS 35 0 15 280
1969227N13325 1969 58 NA NA DEBBIE 1969-08-15 03:00:00 TS 13.6498 -39.2500 main 1688 1634 P_____________ AL081969 13.6498 -39.2500 TS 37 0 15 282
1969227N13325 1969 58 NA NA DEBBIE 1969-08-15 06:00:00 TS 13.8000 -40.0000 40 hurdat_atl main 1634 1584 O_____________ hurdat_atl AL081969 13.8000 -40.0000 TS 40 0 15 280
1969227N13325 1969 58 NA NA DEBBIE 1969-08-15 09:00:00 TS 13.8998 -40.7502 main 1576 1528 P_____________ AL081969 13.8998 -40.7502 TS 42 0 15 278
1969227N13325 1969 58 NA NA DEBBIE 1969-08-15 12:00:00 TS 14.0000 -41.5000 45 hurdat_atl main 1528 1483 O_____________ hurdat_atl AL081969 14.0000 -41.5000 TS 45 0 15 280
1969227N13325 1969 58 NA NA DEBBIE 1969-08-15 15:00:00 TS 14.1498 -42.2500 main 1483 1443 P_____________ AL081969 14.1498 -42.2500 TS 47 0 15 282
1969227N13325 1969 58 NA NA DEBBIE 1969-08-15 18:00:00 TS 14.3000 -43.0000 50 hurdat_atl main 1443 1405 O_____________ hurdat_atl AL081969 14.3000 -43.0000 TS 50 0 15 280
1969227N13325 1969 58 NA NA DEBBIE 1969-08-15 21:00:00 TS 14.4075 -43.7726 main 1398 1364 P_____________ AL081969 14.4075 -43.7726 TS 52 0 15 278
1969227N13325 1969 58 NA NA DEBBIE 1969-08-16 00:00:00 TS 14.5000 -44.5000 55 hurdat_atl main 1364 1335 O_____________ hurdat_atl AL081969 14.5000 -44.5000 TS 55 0 13 278
1969227N13325 1969 58 NA NA DEBBIE 1969-08-16 03:00:00 TS 14.5922 -45.1226 main 1335 1304 P_____________ AL081969 14.5922 -45.1226 TS 57 0 12 280
1969227N13325 1969 58 NA NA DEBBIE 1969-08-16 06:00:00 TS 14.7000 -45.7000 60 hurdat_atl main 1304 1277 O_____________ hurdat_atl AL081969 14.7000 -45.7000 TS 60 0 12 282
1969227N13325 1969 58 NA NA DEBBIE 1969-08-16 09:00:00 TS 14.8274 -46.3076 main 1277 1262 P_____________ AL081969 14.8274 -46.3076 TS 62 0 12 285
1969227N13325 1969 58 NA NA DEBBIE 1969-08-16 12:00:00 TS 15.0000 -46.9000 65 hurdat_atl main 1262 1256 O_____________ hurdat_atl AL081969 15.0000 -46.9000 HU 65 1 12 290
1969227N13325 1969 58 NA NA DEBBIE 1969-08-16 15:00:00 TS 15.2349 -47.4650 main 1251 1251 P_____________ AL081969 15.2349 -47.4650 HU 65 1 12 295
1969227N13325 1969 58 NA NA DEBBIE 1969-08-16 18:00:00 TS 15.5000 -48.0000 65 987 hurdat_atl main 1257 1252 O_____________ hurdat_atl AL081969 15.5000 -48.0000 HU 65 987 1 11 297
1969227N13325 1969 58 NA NA DEBBIE 1969-08-16 21:00:00 TS 15.7498 -48.5076 main 1255 1255 P_____________ AL081969 15.7498 -48.5076 HU 67 1 11 297
1969227N13325 1969 58 NA NA DEBBIE 1969-08-17 00:00:00 TS 16.0000 -49.0000 70 hurdat_atl main 1265 1260 O_____________ hurdat_atl AL081969 16.0000 -49.0000 HU 70 1 11 297
1969227N13325 1969 58 NA NA DEBBIE 1969-08-17 03:00:00 TS 16.2500 -49.5151 main 1262 1262 P_____________ AL081969 16.2500 -49.5151 HU 72 1 11 298
1969227N13325 1969 58 NA NA DEBBIE 1969-08-17 06:00:00 TS 16.5000 -50.0000 75 hurdat_atl main 1272 1268 O_____________ hurdat_atl AL081969 16.5000 -50.0000 HU 75 1 10 300
1969227N13325 1969 58 NA NA DEBBIE 1969-08-17 09:00:00 TS 16.7348 -50.4078 main 1278 1278 P_____________ AL081969 16.7348 -50.4078 HU 80 1 9 303
1969227N13325 1969 58 NA NA DEBBIE 1969-08-17 12:00:00 TS 17.0000 -50.8000 85 974 hurdat_atl main 1296 1289 O_____________ hurdat_atl AL081969 17.0000 -50.8000 HU 85 974 2 10 307
1969227N13325 1969 58 NA NA DEBBIE 1969-08-17 15:00:00 TS 17.3350 -51.2425 main 1289 1272 P_____________ AL081969 17.3350 -51.2425 HU 87 972 2 11 309
1969227N13325 1969 58 NA NA DEBBIE 1969-08-17 18:00:00 TS 17.7000 -51.7000 90 hurdat_atl main 1272 1259 I_____________ hurdat_atl AL081969 17.7000 -51.7000 HU 90 970 2 11 309
1969227N13325 1969 58 NA NA DEBBIE 1969-08-17 21:00:00 TS 18.0575 -52.1650 main 1258 1248 P_____________ AL081969 18.0575 -52.1650 HU 90 968 2 11 309
1969227N13325 1969 58 NA NA DEBBIE 1969-08-18 00:00:00 TS 18.4000 -52.6000 90 966 hurdat_atl main 1248 1241 O_____________ hurdat_atl AL081969 18.4000 -52.6000 HU 90 966 2 10 311
1969227N13325 1969 58 NA NA DEBBIE 1969-08-18 03:00:00 TS 18.7073 -52.9652 main 1241 1241 P_____________ AL081969 18.7073 -52.9652 HU 90 966 2 9 312
1969227N13325 1969 58 NA NA DEBBIE 1969-08-18 06:00:00 TS 19.0000 -53.3000 90 967 hurdat_atl main 1243 1236 O_____________ hurdat_atl AL081969 19.0000 -53.3000 HU 90 967 2 9 312
1969227N13325 1969 58 NA NA DEBBIE 1969-08-18 09:00:00 TS 19.2925 -53.6576 main 1241 1226 P_____________ AL081969 19.2925 -53.6576 HU 87 969 2 9 312
1969227N13325 1969 58 NA NA DEBBIE 1969-08-18 12:00:00 TS 19.6000 -54.0000 85 971 hurdat_atl main 1226 1198 O_____________ hurdat_atl AL081969 19.6000 -54.0000 HU 85 971 2 9 317
1969227N13325 1969 58 NA NA DEBBIE 1969-08-18 15:00:00 TS 19.9423 -54.2927 main 1198 1173 P_____________ AL081969 19.9423 -54.2927 HU 85 971 2 9 321
1969227N13325 1969 58 NA NA DEBBIE 1969-08-18 18:00:00 TS 20.3000 -54.6000 85 971 hurdat_atl main 1173 1147 O_____________ hurdat_atl AL081969 20.3000 -54.6000 HU 85 971 2 9 319
1969227N13325 1969 58 NA NA DEBBIE 1969-08-18 21:00:00 TS 20.6498 -54.9553 main 1137 1106 P_____________ AL081969 20.6498 -54.9553 HU 82 974 1 10 313
1969227N13325 1969 58 NA NA DEBBIE 1969-08-19 00:00:00 TS 21.0000 -55.4000 80 977 hurdat_atl main 1106 1064 O_____________ hurdat_atl AL081969 21.0000 -55.4000 HU 80 977 1 12 306
1969227N13325 1969 58 NA NA DEBBIE 1969-08-19 03:00:00 TS 21.3501 -55.9701 main 1057 1009 P_____________ AL081969 21.3501 -55.9701 HU 80 976 1 13 302
1969227N13325 1969 58 NA NA DEBBIE 1969-08-19 06:00:00 TS 21.7000 -56.6000 80 976 hurdat_atl main 1009 964 O_____________ hurdat_atl AL081969 21.7000 -56.6000 HU 80 976 1 13 302
1969227N13325 1969 58 NA NA DEBBIE 1969-08-19 09:00:00 TS 22.0496 -57.1854 main 964 927 P_____________ AL081969 22.0496 -57.1854 HU 82 974 1 13 302
1969227N13325 1969 58 NA NA DEBBIE 1969-08-19 12:00:00 TS 22.4000 -57.8000 85 973 hurdat_atl main 927 890 O_____________ hurdat_atl AL081969 22.4000 -57.8000 HU 85 973 2 14 300
1969227N13325 1969 58 NA NA DEBBIE 1969-08-19 15:00:00 TS 22.7499 -58.4853 main 881 847 P_____________ AL081969 22.7499 -58.4853 HU 92 968 2 15 298
1969227N13325 1969 58 NA NA DEBBIE 1969-08-19 18:00:00 TS 23.1000 -59.2000 100 964 hurdat_atl main 847 814 O_____________ hurdat_atl AL081969 23.1000 -59.2000 HU 100 964 3 15 299
1969227N13325 1969 58 NA NA DEBBIE 1969-08-19 21:00:00 TS 23.4571 -59.8928 main 821 794 P_____________ AL081969 23.4571 -59.8928 HU 105 959 3 15 299
1969227N13325 1969 58 NA NA DEBBIE 1969-08-20 00:00:00 TS 23.8000 -60.6000 110 954 hurdat_atl main 795 774 O_____________ hurdat_atl AL081969 23.8000 -60.6000 HU 110 954 3 15 296
1969227N13325 1969 58 NA NA DEBBIE 1969-08-20 03:00:00 TS 24.1000 -61.3654 main 771 757 P_____________ AL081969 24.1000 -61.3654 HU 110 953 3 15 294
1969227N13325 1969 58 NA NA DEBBIE 1969-08-20 06:00:00 TS 24.4000 -62.1000 110 952 hurdat_atl main 762 757 O_____________ hurdat_atl AL081969 24.4000 -62.1000 HU 110 952 3 14 297
1969227N13325 1969 58 NA NA DEBBIE 1969-08-20 09:00:00 TS 24.7422 -62.7452 main 765 765 P_____________ AL081969 24.7422 -62.7452 HU 110 953 3 13 303
1969227N13325 1969 58 NA NA DEBBIE 1969-08-20 12:00:00 TS 25.1000 -63.3000 110 954 hurdat_atl main 785 782 O_____________ hurdat_atl AL081969 25.1000 -63.3000 HU 110 954 3 12 307
1969227N13325 1969 58 NA NA DEBBIE 1969-08-20 15:00:00 TS 25.4423 -63.7879 main 804 804 P_____________ AL081969 25.4423 -63.7879 HU 110 952 3 11 311
1969227N13325 1969 58 NA NA DEBBIE 1969-08-20 18:00:00 TS 25.8000 -64.2000 110 950 hurdat_atl main 839 839 O_____________ hurdat_atl AL081969 25.8000 -64.2000 HU 110 950 3 11 316
1969227N13325 1969 58 NA NA DEBBIE 1969-08-20 21:00:00 TS 26.1925 -64.6024 main 878 878 P_____________ AL081969 26.1925 -64.6024 HU 102 954 3 10 322
1969227N13325 1969 58 NA NA DEBBIE 1969-08-21 00:00:00 TS 26.6000 -64.9000 95 959 hurdat_atl main 919 919 O_____________ hurdat_atl AL081969 26.6000 -64.9000 HU 95 959 2 9 332
1969227N13325 1969 58 NA NA DEBBIE 1969-08-21 03:00:00 TS 26.9848 -65.0750 main 961 961 P_____________ AL081969 26.9848 -65.0750 HU 95 958 2 8 347
1969227N13325 1969 58 NA NA DEBBIE 1969-08-21 06:00:00 TS 27.4000 -65.1000 95 958 hurdat_atl main 1001 1001 O_____________ hurdat_atl AL081969 27.4000 -65.1000 HU 95 958 2 9 2
1969227N13325 1969 58 NA NA DEBBIE 1969-08-21 09:00:00 TS 27.8848 -65.0248 main 1055 1055 P_____________ AL081969 27.8848 -65.0248 HU 95 958 2 10 15
1969227N13325 1969 58 NA NA DEBBIE 1969-08-21 12:00:00 TS 28.4000 -64.8000 95 959 hurdat_atl main 1114 1114 O_____________ hurdat_atl AL081969 28.4000 -64.8000 HU 95 959 2 11 26
1969227N13325 1969 58 NA NA DEBBIE 1969-08-21 15:00:00 TS 28.9073 -64.4673 main 1177 1177 P_____________ AL081969 28.9073 -64.4673 HU 95 959 2 12 35
1969227N13325 1969 58 NA NA DEBBIE 1969-08-21 18:00:00 TS 29.4000 -64.0000 95 hurdat_atl main 1239 1239 I_____________ hurdat_atl AL081969 29.4000 -64.0000 HU 95 959 2 13 43
1969227N13325 1969 58 NA NA DEBBIE 1969-08-21 21:00:00 TS 29.8499 -63.4444 main 1293 1293 P_____________ AL081969 29.8499 -63.4444 HU 95 959 2 14 49
1969227N13325 1969 58 NA NA DEBBIE 1969-08-22 00:00:00 TS 30.3000 -62.8000 95 959 hurdat_atl main 1329 1329 O_____________ hurdat_atl AL081969 30.3000 -62.8000 HU 95 959 2 15 51
1969227N13325 1969 58 NA NA DEBBIE 1969-08-22 03:00:00 TS 30.7699 -62.1141 main 1360 1360 P_____________ AL081969 30.7699 -62.1141 HU 92 962 2 16 50
1969227N13325 1969 58 NA NA DEBBIE 1969-08-22 06:00:00 TS 31.3000 -61.4000 90 965 hurdat_atl main 1387 1350 O_____________ hurdat_atl AL081969 31.3000 -61.4000 HU 90 965 2 17 47
1969227N13325 1969 58 NA NA DEBBIE 1969-08-22 09:00:00 TS 31.9274 -60.6848 main 1352 1298 P_____________ AL081969 31.9274 -60.6848 HU 90 964 2 18 42
1969227N13325 1969 58 NA NA DEBBIE 1969-08-22 12:00:00 TS 32.6000 -60.0000 90 hurdat_atl main 1298 1252 I_____________ hurdat_atl AL081969 32.6000 -60.0000 HU 90 964 2 17 40
1969227N13325 1969 58 NA NA DEBBIE 1969-08-22 15:00:00 TS 33.2344 -59.3908 main 1255 1206 P_____________ AL081969 33.2344 -59.3908 HU 90 963 2 16 38
1969227N13325 1969 58 NA NA DEBBIE 1969-08-22 18:00:00 TS 33.9000 -58.8000 90 963 hurdat_atl main 1206 1163 O_____________ hurdat_atl AL081969 33.9000 -58.8000 HU 90 963 2 17 36
1969227N13325 1969 58 NA NA DEBBIE 1969-08-22 21:00:00 TS 34.6349 -58.1496 main 1167 1120 P_____________ AL081969 34.6349 -58.1496 HU 90 964 2 18 35
1969227N13325 1969 58 NA NA DEBBIE 1969-08-23 00:00:00 TS 35.4000 -57.5000 90 hurdat_atl main 1120 1069 I_____________ hurdat_atl AL081969 35.4000 -57.5000 HU 90 965 2 18 34
1969227N13325 1969 58 NA NA DEBBIE 1969-08-23 03:00:00 TS 36.1420 -56.8982 main 1071 1006 P_____________ AL081969 36.1420 -56.8982 HU 87 966 2 18 33
1969227N13325 1969 58 NA NA DEBBIE 1969-08-23 06:00:00 TS 36.9000 -56.3000 85 967 hurdat_atl main 1006 956 O_____________ hurdat_atl AL081969 36.9000 -56.3000 HU 85 967 2 18 33
1969227N13325 1969 58 NA NA DEBBIE 1969-08-23 09:00:00 TS 37.6549 -55.6483 main 950 903 P_____________ AL081969 37.6549 -55.6483 HU 82 1 19 33
1969227N13325 1969 58 NA NA DEBBIE 1969-08-23 12:00:00 TS 38.5000 -55.0000 80 hurdat_atl main 898 803 O_____________ hurdat_atl AL081969 38.5000 -55.0000 HU 80 1 21 29
1969227N13325 1969 58 NA NA DEBBIE 1969-08-23 15:00:00 TS 39.4901 -54.3552 main 792 678 P_____________ AL081969 39.4901 -54.3552 HU 77 1 23 24
1969227N13325 1969 58 NA NA DEBBIE 1969-08-23 18:00:00 ET 40.6000 -53.8000 75 hurdat_atl main 667 544 O_____________ hurdat_atl AL081969 40.6000 -53.8000 EX 75 -4 24 18
1969227N13325 1969 58 NA NA DEBBIE 1969-08-23 21:00:00 ET 41.7696 -53.3884 main 533 411 P_____________ AL081969 41.7696 -53.3884 EX 72 -4 25 12
1969227N13325 1969 58 NA NA DEBBIE 1969-08-24 00:00:00 ET 43.0000 -53.1000 70 hurdat_atl main 400 267 O_____________ hurdat_atl AL081969 43.0000 -53.1000 EX 70 -4 25 8
1969227N13325 1969 58 NA NA DEBBIE 1969-08-24 03:00:00 ET 44.2422 -52.8964 main 267 138 P_____________ AL081969 44.2422 -52.8964 EX 67 -4 25 7
1969227N13325 1969 58 NA NA DEBBIE 1969-08-24 06:00:00 ET 45.5000 -52.7000 65 hurdat_atl main 128 43 O_____________ hurdat_atl AL081969 45.5000 -52.7000 EX 65 -4 25 7
1969227N13325 1969 58 NA NA DEBBIE 1969-08-24 09:00:00 ET 46.7493 -52.4281 main 46 29 P_____________ AL081969 46.7493 -52.4281 EX 62 -4 25 11
1969227N13325 1969 58 NA NA DEBBIE 1969-08-24 12:00:00 ET 48.0000 -52.0000 60 hurdat_atl main 60 59 O_____________ hurdat_atl AL081969 48.0000 -52.0000 EX 60 -4 26 16
1969227N13325 1969 58 NA NA DEBBIE 1969-08-24 15:00:00 ET 49.2488 -51.3797 main 140 140 P_____________ AL081969 49.2488 -51.3797 EX 57 -4 27 21
1969227N13325 1969 58 NA NA DEBBIE 1969-08-24 18:00:00 ET 50.5000 -50.5000 55 hurdat_atl main 251 251 O_____________ hurdat_atl AL081969 50.5000 -50.5000 EX 55 -4 27 27
1969227N13325 1969 58 NA NA DEBBIE 1969-08-24 21:00:00 ET 51.6706 -49.4504 main 387 387 P_____________ AL081969 51.6706 -49.4504 EX 52 -4 29 32
1969227N13325 1969 58 NA NA DEBBIE 1969-08-25 00:00:00 ET 53.0000 -48.0000 50 hurdat_atl main 513 513 O_____________ hurdat_atl AL081969 53.0000 -48.0000 EX 50 -4 36 35
1969227N13325 1969 58 NA NA DEBBIE 1969-08-25 03:00:00 ET 54.6402 -45.9318 main 601 402 P_____________ AL081969 54.6402 -45.9318 EX 50 -4 43 37
1969227N13325 1969 58 NA NA DEBBIE 1969-08-25 06:00:00 ET 56.5000 -43.5000 50 hurdat_atl main 392 206 O_____________ hurdat_atl AL081969 56.5000 -43.5000 EX 50 -4 48 34
1969227N13325 1969 58 NA NA DEBBIE 1969-08-25 09:00:00 ET 58.6092 -41.0563 main 200 182 P_____________ AL081969 58.6092 -41.0563 EX 52 -4 48 33
1969227N13325 1969 58 NA NA DEBBIE 1969-08-25 12:00:00 ET 60.5000 -38.5000 55 988 hurdat_atl main 230 230 O_____________ hurdat_atl AL081969 60.5000 -38.5000 EX 55 988 -4 40 39
1969227N13325 1969 58 NA NA DEBBIE 1969-08-25 15:00:00 ET 61.7165 -36.0029 main 312 310 P_____________ AL081969 61.7165 -36.0029 EX 52 989 -4 31 50
1969227N13325 1969 58 NA NA DEBBIE 1969-08-25 18:00:00 ET 62.5000 -33.5000 50 990 hurdat_atl main 373 373 O_____________ hurdat_atl AL081969 62.5000 -33.5000 EX 50 990 -4 26 60
1969227N13325 1969 58 NA NA DEBBIE 1969-08-25 21:00:00 ET 63.0107 -31.0585 main 399 250 P_____________ AL081969 63.0107 -31.0585 EX 47 991 -4 27 68
1969227N13325 1969 58 NA NA DEBBIE 1969-08-26 00:00:00 ET 63.5000 -28.0000 45 992 hurdat_atl main 242 44 O_____________ hurdat_atl AL081969 63.5000 -28.0000 EX 45 992 -4 37 70
1969227N13325 1969 58 NA NA DEBBIE 1969-08-26 03:00:00 ET 64.2777 -23.2288 main 40 0 P_____________ AL081969 64.2777 -23.2288 EX 45 992 -4 46 71
1969227N13325 1969 58 NA NA DEBBIE 1969-08-26 06:00:00 ET 65.0000 -18.0000 45 993 hurdat_atl main 0 0 O_____________ hurdat_atl AL081969 65.0000 -18.0000 EX 45 993 -4 43 72
1969227N13325 1969 58 NA NA DEBBIE 1969-08-26 09:00:00 ET 65.6100 -13.4443 main 21 21 P_____________ AL081969 65.6100 -13.4443 EX 42 993 -4 34 73
1969227N13325 1969 58 NA NA DEBBIE 1969-08-26 12:00:00 ET 66.0000 -10.0000 40 994 hurdat_atl main 176 176 O_____________ hurdat_atl AL081969 66.0000 -10.0000 EX 40 994 -4 21 79
1969227N13325 1969 58 NA NA DEBBIE 1969-08-26 15:00:00 ET 66.0178 -8.30762 main 249 249 P_____________ AL081969 66.0178 -8.30762 EX 40 994 -4 10 90
1969227N13325 1969 58 NA NA DEBBIE 1969-08-26 18:00:00 ET 66.0000 -7.50000 40 995 hurdat_atl main 284 284 O_____________ hurdat_atl AL081969 66.0000 -7.50000 EX 40 995 -4 8 63
1969227N13325 1969 58 NA NA DEBBIE 1969-08-26 21:00:00 ET 66.3921 -6.48173 main 338 338 P_____________ AL081969 66.3921 -6.48173 EX 40 995 -4 11 63
1969227N13325 1969 58 NA NA DEBBIE 1969-08-27 00:00:00 ET 66.5000 -5.00000 40 995 hurdat_atl main 405 405 O_____________ hurdat_atl AL081969 66.5000 -5.00000 EX 40 995 -4 18 119
1969227N13325 1969 58 NA NA DEBBIE 1969-08-27 03:00:00 ET 65.5387 -2.64379 main 504 369 P_____________ AL081969 65.5387 -2.64379 EX 40 995 -4 29 134
1969227N13325 1969 58 NA NA DEBBIE 1969-08-27 06:00:00 ET 64.5000 -7.74322e-10 40 995 hurdat_atl main 366 263 O_____________ hurdat_atl AL081969 64.5000 0.00000 EX 40 995 -4 26 119
1969227N13325 1969 58 NA NA DEBBIE 1969-08-27 09:00:00 ET 64.2465 2.68987 main 255 192 P_____________ AL081969 64.2465 2.68987 EX 37 996 -4 24 90
1969227N13325 1969 58 NA NA DEBBIE 1969-08-27 12:00:00 ET 64.5000 5.50000 35 997 hurdat_atl main 191 O_____________ hurdat_atl AL081969 64.5000 -354.500 EX 35 997 -4 25 78

IBTrACS Databaseについて

本データベースは、米国NOAAが公開する1842年以降の世界の熱帯低気圧のベストトラックデータアーカイブInternational Best Track Archive for Climate Stewardship (IBTrACS)を、ウェブで閲覧しやすい形式に変換したものです。

最終更新日:2022-05-21